Time;durP1;ratioP1;P1;durP2;ratioP2;P2;SDS_P1;SDS_P2;PMS_P1;PMS_P2;Temp;Humidity;BMP_temperature;BMP_pressure;BME280_temperature;BME280_humidity;BME280_pressure;Samples;Min_cycle;Max_cycle;Signal;HPM_P1;HPM_P2
2023/05/05 00:00:12;;;;;;;;;;;;;;;19.79;61.87;96444.19;5100636;27;20075;-54
2023/05/05 00:02:41;;;;;;;12.05;4.80;;;;;;;19.72;63.47;96435.34;5105335;27;19985;-54
2023/05/05 00:05:10;;;;;;;11.07;4.57;;;;;;;19.61;63.36;96435.88;5104310;28;20075;-49
2023/05/05 00:07:38;;;;;;;13.60;5.72;;;;;;;19.57;63.50;96438.13;5102596;27;20082;-53
2023/05/05 00:10:07;;;;;;;10.48;5.25;;;;;;;18.89;67.10;96437.22;5105133;27;20101;-55
2023/05/05 00:12:36;;;;;;;9.75;5.43;;;;;;;18.76;69.33;96437.19;5107130;27;20102;-53
2023/05/05 00:15:06;;;;;;;12.18;6.10;;;;;;;19.19;64.15;96427.09;5103933;27;20157;-54
2023/05/05 00:17:34;;;;;;;11.02;5.10;;;;;;;19.21;62.66;96428.56;5101374;27;20963;-51
2023/05/05 00:20:05;;;;;;;12.45;5.28;;;;;;;18.63;66.95;96428.00;5105395;28;20083;-56
2023/05/05 00:22:33;;;;;;;10.90;5.00;;;;;;;18.94;64.73;96426.78;5105921;28;20086;-52
2023/05/05 00:25:03;;;;;;;8.55;5.03;;;;;;;19.22;63.99;96440.06;5105858;28;20079;-53
2023/05/05 00:27:32;;;;;;;10.77;5.53;;;;;;;19.25;64.78;96430.84;5105492;27;20083;-52
2023/05/05 00:30:00;;;;;;;9.25;5.32;;;;;;;18.87;65.42;96431.28;5104663;27;20459;-54
2023/05/05 00:32:28;;;;;;;8.63;4.80;;;;;;;18.91;64.41;96429.84;5106375;27;20083;-50
2023/05/05 00:34:57;;;;;;;8.73;4.78;;;;;;;18.99;63.84;96429.69;5104231;27;20090;-55
2023/05/05 00:37:27;;;;;;;16.52;4.97;;;;;;;19.00;63.26;96435.88;5094649;27;20079;-52
2023/05/05 00:39:55;;;;;;;7.88;4.43;;;;;;;19.12;62.32;96431.59;5108725;27;20091;-52
2023/05/05 00:42:23;;;;;;;8.93;4.85;;;;;;;19.00;62.83;96433.19;5105993;28;20079;-53
2023/05/05 00:44:51;;;;;;;9.23;5.15;;;;;;;18.64;64.99;96431.50;5105878;28;20762;-49
2023/05/05 00:47:20;;;;;;;10.13;5.40;;;;;;;19.02;62.62;96421.25;5105789;27;20083;-49
2023/05/05 00:49:48;;;;;;;8.50;4.65;;;;;;;19.04;63.91;96429.09;5103900;28;20075;-58
2023/05/05 00:52:16;;;;;;;11.57;4.80;;;;;;;18.27;66.74;96431.69;5099543;28;20071;-53
2023/05/05 00:54:46;;;;;;;8.35;4.57;;;;;;;18.49;65.13;96431.63;5103129;28;20090;-51
2023/05/05 00:57:14;;;;;;;13.85;5.32;;;;;;;18.40;63.65;96435.44;5105522;27;20522;-57
2023/05/05 00:59:43;;;;;;;11.65;4.55;;;;;;;18.39;67.38;96439.16;5105699;28;20109;-60
2023/05/05 01:02:12;;;;;;;9.77;4.57;;;;;;;18.14;67.82;96436.91;5103194;28;20094;-52
2023/05/05 01:04:40;;;;;;;9.38;4.60;;;;;;;18.52;65.90;96425.06;5099344;28;20087;-50
2023/05/05 01:07:17;;;;;;;6.88;4.00;;;;;;;18.23;67.50;96424.22;5103875;28;20538;-49
2023/05/05 01:09:52;;;;;;;10.45;4.85;;;;;;;17.83;72.64;96426.56;5100799;28;20087;-53
2023/05/05 01:12:48;;;;;;;8.65;5.28;;;;;;;18.32;70.65;96419.59;5102460;28;20087;-50
2023/05/05 01:15:22;;;;;;;8.07;4.55;;;;;;;18.22;71.02;96420.75;5105664;28;20530;-56
2023/05/05 01:17:55;;;;;;;7.72;4.30;;;;;;;18.13;72.64;96413.06;5103707;28;20488;-56
2023/05/05 01:20:27;;;;;;;7.57;5.10;;;;;;;18.18;71.31;96416.00;5101353;28;20109;-49
2023/05/05 01:22:59;;;;;;;8.90;4.93;;;;;;;18.43;68.45;96411.03;5103667;28;20553;-55
2023/05/05 01:25:58;;;;;;;8.05;4.70;;;;;;;18.36;68.77;96410.97;5100466;28;20654;-56
2023/05/05 01:28:38;;;;;;;7.13;4.40;;;;;;;17.89;70.40;96415.09;5095747;28;20090;-55
2023/05/05 01:31:13;;;;;;;8.55;5.25;;;;;;;18.34;65.96;96407.69;5094926;28;20079;-53
2023/05/05 01:33:46;;;;;;;11.18;5.18;;;;;;;18.45;65.23;96406.34;5104843;28;20156;-50
2023/05/05 01:36:21;;;;;;;7.55;3.95;;;;;;;18.36;68.38;96410.16;5104810;28;20071;-53
2023/05/05 01:38:53;;;;;;;6.93;3.72;;;;;;;18.50;65.49;96411.91;5101244;28;20087;-54
2023/05/05 01:41:25;;;;;;;11.07;3.88;;;;;;;18.15;68.69;96408.38;5104493;28;20086;-54
2023/05/05 01:43:54;;;;;;;9.55;4.00;;;;;;;18.07;66.24;96401.34;5104069;28;20075;-58
2023/05/05 01:46:23;;;;;;;8.05;4.05;;;;;;;17.95;67.19;96406.34;5102088;28;20080;-53
2023/05/05 01:48:53;;;;;;;8.20;4.07;;;;;;;18.21;66.29;96403.09;5103887;28;20083;-55
2023/05/05 01:51:23;;;;;;;6.38;4.20;;;;;;;18.31;66.90;96412.59;5101392;28;20079;-53
2023/05/05 01:53:53;;;;;;;5.83;3.87;;;;;;;17.93;70.40;96411.06;5106406;28;20091;-52
2023/05/05 01:56:23;;;;;;;7.47;3.95;;;;;;;18.06;67.78;96412.19;5104014;28;20074;-52
2023/05/05 01:58:53;;;;;;;8.95;4.32;;;;;;;17.96;67.70;96412.50;5102824;28;20553;-57
2023/05/05 02:01:22;;;;;;;10.00;4.45;;;;;;;18.21;66.82;96415.59;5104297;28;20091;-50
2023/05/05 02:03:51;;;;;;;9.77;4.05;;;;;;;17.15;69.58;96417.19;5103808;28;20121;-54
2023/05/05 02:06:21;;;;;;;9.68;4.57;;;;;;;17.69;69.14;96419.44;5099995;28;20454;-59
2023/05/05 02:08:50;;;;;;;8.95;3.80;;;;;;;18.11;66.37;96407.94;5105986;28;20075;-55
2023/05/05 02:11:20;;;;;;;10.23;3.95;;;;;;;18.11;66.42;96413.28;5103457;28;20087;-56
2023/05/05 02:13:49;;;;;;;8.40;4.10;;;;;;;18.02;67.81;96417.06;5104935;27;20079;-55
2023/05/05 02:16:18;;;;;;;11.38;4.18;;;;;;;18.13;67.28;96419.22;5104223;27;20090;-58
2023/05/05 02:18:47;;;;;;;9.75;4.55;;;;;;;18.16;66.45;96429.50;5105416;27;20443;-57
2023/05/05 02:21:16;;;;;;;5.78;3.35;;;;;;;17.74;68.68;96425.81;5100115;27;20135;-56
2023/05/05 02:23:50;;;;;;;7.28;4.32;;;;;;;17.06;75.79;96419.94;5094704;27;20581;-55
2023/05/05 02:26:20;;;;;;;8.85;4.00;;;;;;;17.64;71.56;96416.50;5097651;27;20126;-48
2023/05/05 02:28:52;;;;;;;7.18;4.30;;;;;;;17.93;69.38;96429.75;5094671;27;20590;-57
2023/05/05 02:31:23;;;;;;;9.15;4.40;;;;;;;18.03;68.41;96421.38;5092831;27;20221;-50
2023/05/05 02:33:53;;;;;;;9.77;4.53;;;;;;;17.96;67.65;96420.50;5096968;27;20090;-54
2023/05/05 02:36:23;;;;;;;21.83;15.43;;;;;;;17.29;71.63;96424.31;5093665;27;20182;-56
2023/05/05 02:38:56;;;;;;;7.68;3.78;;;;;;;17.59;71.19;96417.06;5099400;27;20137;-53
2023/05/05 02:41:25;;;;;;;10.63;5.60;;;;;;;17.33;73.47;96421.09;5090899;27;20142;-58
2023/05/05 02:43:55;;;;;;;13.40;6.55;;;;;;;17.20;73.95;96420.09;5100688;27;20094;-51
2023/05/05 02:46:23;;;;;;;17.80;9.63;;;;;;;16.68;76.94;96435.19;5091301;27;20142;-51
2023/05/05 02:48:51;;;;;;;15.43;6.95;;;;;;;16.98;74.47;96428.03;5105606;27;20086;-56
2023/05/05 02:51:20;;;;;;;7.55;4.10;;;;;;;18.02;71.07;96417.06;5089451;27;20174;-55
2023/05/05 02:53:48;;;;;;;7.32;4.60;;;;;;;18.06;70.24;96420.19;5095296;27;20976;-51
2023/05/05 02:56:21;;;;;;;9.13;4.78;;;;;;;17.91;68.27;96422.94;5086019;27;20482;-55
2023/05/05 02:58:53;;;;;;;7.85;4.80;;;;;;;17.81;72.41;96431.25;5100182;27;20075;-59
2023/05/05 03:01:38;;;;;;;10.15;5.05;;;;;;;17.70;68.93;96429.06;5100943;27;20137;-57
2023/05/05 03:04:09;;;;;;;7.80;4.30;;;;;;;17.64;68.63;96427.97;5094533;27;20139;-55
2023/05/05 03:06:41;;;;;;;10.90;4.80;;;;;;;17.78;66.93;96421.78;5087425;27;20130;-58
2023/05/05 03:09:10;;;;;;;28.33;12.52;;;;;;;16.46;78.19;96431.59;5098945;27;20079;-58
2023/05/05 03:11:44;;;;;;;23.83;16.38;;;;;;;17.14;75.21;96423.53;5092551;27;20146;-52
2023/05/05 03:14:15;;;;;;;13.23;5.38;;;;;;;17.13;72.39;96429.84;5098245;27;20150;-51
2023/05/05 03:16:45;;;;;;;6.53;3.72;;;;;;;17.25;71.86;96431.88;5091906;27;20145;-58
2023/05/05 03:19:15;;;;;;;10.40;5.25;;;;;;;17.02;77.05;96431.16;5097506;27;20599;-51
2023/05/05 03:21:43;;;;;;;8.45;4.10;;;;;;;17.27;70.64;96424.53;5092506;27;20142;-51
2023/05/05 03:24:15;;;;;;;8.07;3.72;;;;;;;17.64;71.63;96427.97;5095471;27;20083;-53
2023/05/05 03:26:46;;;;;;;6.45;3.78;;;;;;;17.11;76.69;96426.56;5107128;27;20087;-50
2023/05/05 03:29:14;;;;;;;7.75;4.25;;;;;;;17.18;79.99;96432.81;5105492;27;20090;-55
2023/05/05 03:31:43;;;;;;;7.57;3.95;;;;;;;17.11;79.51;96438.06;5096262;27;20151;-49
2023/05/05 03:34:11;;;;;;;6.32;3.90;;;;;;;17.04;78.78;96431.81;5102128;27;20075;-56
2023/05/05 03:36:40;;;;;;;7.82;4.63;;;;;;;17.16;78.71;96434.81;5099271;27;20090;-52
2023/05/05 03:39:09;;;;;;;10.90;4.75;;;;;;;17.43;75.52;96433.28;5102957;27;20090;-55
2023/05/05 03:41:37;;;;;;;10.15;5.07;;;;;;;16.88;77.67;96434.66;5095669;27;20134;-56
2023/05/05 03:44:07;;;;;;;11.48;4.57;;;;;;;16.93;79.47;96422.47;5092496;27;20074;-51
2023/05/05 03:46:35;;;;;;;13.00;5.25;;;;;;;16.67;82.54;96425.53;5093091;27;20134;-53
2023/05/05 03:49:04;;;;;;;10.27;4.82;;;;;;;16.80;80.88;96430.28;5099718;27;20174;-48
2023/05/05 03:51:32;;;;;;;7.20;4.78;;;;;;;17.17;79.31;96432.00;5090537;27;20139;-52
2023/05/05 03:54:00;;;;;;;10.45;4.88;;;;;;;17.52;74.34;96429.50;5094501;27;20106;-49
2023/05/05 03:56:29;;;;;;;10.93;4.60;;;;;;;17.15;75.34;96434.00;5090992;27;20130;-56
2023/05/05 03:58:57;;;;;;;8.88;4.18;;;;;;;17.05;77.07;96436.94;5096008;27;20126;-55
2023/05/05 04:01:28;;;;;;;6.43;3.80;;;;;;;17.44;75.16;96438.44;5094990;27;20102;-53
2023/05/05 04:03:57;;;;;;;6.68;3.78;;;;;;;17.42;73.25;96424.47;5091062;27;20158;-59
2023/05/05 04:06:25;;;;;;;10.45;4.78;;;;;;;17.18;73.85;96427.47;5094787;27;20190;-58
2023/05/05 04:08:53;;;;;;;10.60;4.50;;;;;;;17.22;75.66;96431.41;5094372;27;20126;-54
2023/05/05 04:11:22;;;;;;;6.40;4.18;;;;;;;17.05;76.86;96430.78;5088661;27;20147;-54
2023/05/05 04:13:50;;;;;;;8.45;4.40;;;;;;;17.21;75.41;96429.78;5097064;27;20482;-56
2023/05/05 04:16:19;;;;;;;9.15;4.30;;;;;;;17.20;73.08;96433.44;5090688;27;20142;-53
2023/05/05 04:18:49;;;;;;;10.88;4.70;;;;;;;17.35;75.66;96428.09;5087562;27;20038;-58
2023/05/05 04:21:17;;;;;;;8.87;5.63;;;;;;;18.34;67.81;96428.22;5095655;27;20565;-55
2023/05/05 04:23:45;;;;;;;8.57;5.68;;;;;;;18.94;63.03;96418.78;5092568;27;20138;-52
2023/05/05 04:26:14;;;;;;;11.15;5.35;;;;;;;19.69;58.64;96419.69;5091848;27;20617;-56
2023/05/05 04:28:42;;;;;;;8.40;5.50;;;;;;;20.16;55.53;96417.88;5089858;27;20610;-56
2023/05/05 04:31:10;;;;;;;7.00;4.85;;;;;;;20.86;52.13;96426.28;5090063;27;20147;-56
2023/05/05 04:33:39;;;;;;;8.93;4.97;;;;;;;19.74;54.59;96433.28;5094010;27;20547;-56
2023/05/05 04:36:09;;;;;;;9.05;4.88;;;;;;;21.10;52.12;96432.81;5096865;27;20090;-54
2023/05/05 04:38:37;;;;;;;6.07;4.38;;;;;;;22.14;48.14;96430.84;5091485;27;20123;-54
2023/05/05 04:41:06;;;;;;;7.22;4.18;;;;;;;22.69;46.57;96429.16;5092153;27;20075;-57
2023/05/05 04:43:34;;;;;;;8.73;3.63;;;;;;;21.98;48.04;96429.50;5086244;27;20135;-59
2023/05/05 04:46:03;;;;;;;10.30;3.50;;;;;;;21.42;49.39;96427.56;5089224;28;20076;-50
2023/05/05 04:48:31;;;;;;;5.32;3.20;;;;;;;;;;5082357;28;20555;-60
2023/05/05 04:51:04;;;;;;;5.57;3.72;;;;;;;20.75;53.02;96451.03;5091995;27;20083;-58
2023/05/05 04:53:34;;;;;;;9.38;4.68;;;;;;;20.86;53.29;96442.38;5094922;27;20075;-54
2023/05/05 04:56:02;;;;;;;7.77;4.57;;;;;;;21.98;50.13;96434.88;5097981;27;20135;-58
2023/05/05 04:58:30;;;;;;;8.13;5.07;;;;;;;22.29;48.49;96434.03;5085493;27;20078;-54
2023/05/05 05:00:59;;;;;;;9.70;4.45;;;;;;;22.85;46.51;96438.50;5100124;28;20075;-53
2023/05/05 05:03:27;;;;;;;9.55;4.50;;;;;;;23.29;45.03;96433.06;5092349;28;20135;-54
2023/05/05 05:05:55;;;;;;;8.52;5.50;;;;;;;23.43;45.05;96427.34;5097405;27;20158;-53
2023/05/05 05:08:24;;;;;;;8.00;4.90;;;;;;;23.40;44.97;96433.16;5093839;27;20090;-54
2023/05/05 05:10:53;;;;;;;8.93;4.68;;;;;;;23.44;45.02;96442.41;5094382;27;20130;-60
2023/05/05 05:13:22;;;;;;;6.27;4.77;;;;;;;24.05;45.26;96439.75;5090820;28;20114;-58
2023/05/05 05:15:50;;;;;;;7.40;4.65;;;;;;;24.03;44.75;96448.06;5096996;28;20510;-54
2023/05/05 05:18:18;;;;;;;10.13;5.40;;;;;;;23.75;46.01;96434.41;5088798;28;20094;-54
2023/05/05 05:20:46;;;;;;;7.70;4.85;;;;;;;24.34;44.67;96438.88;5095254;28;20147;-53
2023/05/05 05:23:15;;;;;;;6.53;5.60;;;;;;;25.07;44.31;96437.63;5098268;28;20087;-61
2023/05/05 05:25:43;;;;;;;6.45;4.28;;;;;;;23.72;48.08;96442.94;5088845;28;20131;-54
2023/05/05 05:28:13;;;;;;;6.60;4.88;;;;;;;24.70;46.68;96431.66;5092858;28;20138;-60
2023/05/05 05:30:41;;;;;;;10.20;5.60;;;;;;;25.06;46.11;96440.56;5091549;28;20130;-59
2023/05/05 05:33:09;;;;;;;6.32;5.38;;;;;;;24.61;48.10;96439.28;5089699;28;20602;-59
2023/05/05 05:35:38;;;;;;;6.15;4.68;;;;;;;24.70;49.33;96439.75;5095806;28;20101;-59
2023/05/05 05:38:06;;;;;;;7.28;5.00;;;;;;;24.67;49.34;96442.91;5089433;28;20163;-59
2023/05/05 05:40:35;;;;;;;7.25;5.55;;;;;;;25.24;48.48;96442.31;5091549;28;20154;-59
2023/05/05 05:43:03;;;;;;;7.38;5.22;;;;;;;24.29;50.94;96448.72;5097847;28;20091;-56
2023/05/05 05:45:33;;;;;;;8.10;5.82;;;;;;;23.71;53.49;96438.56;5098476;28;20083;-59
2023/05/05 05:48:01;;;;;;;8.03;5.70;;;;;;;23.88;53.29;96440.41;5089480;27;20194;-53
2023/05/05 05:50:30;;;;;;;7.78;5.25;;;;;;;24.14;53.89;96439.19;5097775;27;20584;-57
2023/05/05 05:52:58;;;;;;;7.35;5.68;;;;;;;24.31;54.83;96446.59;5097470;27;20075;-55
2023/05/05 05:55:26;;;;;;;8.95;5.28;;;;;;;24.16;54.35;96457.84;5099831;27;20087;-57
2023/05/05 05:57:54;;;;;;;12.90;5.97;;;;;;;24.39;54.03;96454.34;5095930;27;20618;-53
2023/05/05 06:00:23;;;;;;;8.10;5.82;;;;;;;24.26;54.02;96457.25;5101829;27;20075;-54
2023/05/05 06:02:53;;;;;;;8.38;5.97;;;;;;;24.10;54.68;96458.75;5108953;27;20530;-55
2023/05/05 06:05:21;;;;;;;10.93;5.85;;;;;;;23.82;56.29;96460.19;5097771;27;20202;-51
2023/05/05 06:07:49;;;;;;;9.40;5.55;;;;;;;25.26;52.69;96453.72;5101413;27;20075;-55
2023/05/05 06:10:18;;;;;;;12.52;5.80;;;;;;;25.80;49.28;96446.97;5091155;27;20162;-58
2023/05/05 06:12:55;;;;;;;10.07;6.18;;;;;;;25.84;47.09;96447.31;5100868;27;20139;-56
2023/05/05 06:15:24;;;;;;;6.88;5.30;;;;;;;26.19;47.80;96449.88;5102479;27;20090;-55
2023/05/05 06:17:54;;;;;;;8.13;5.75;;;;;;;26.40;47.49;96448.31;5096241;27;20126;-51
2023/05/05 06:20:22;;;;;;;10.43;5.30;;;;;;;26.64;46.81;96449.00;5105189;27;20079;-56
2023/05/05 06:22:50;;;;;;;8.60;5.15;;;;;;;26.42;46.49;96453.47;5106959;28;20539;-52
2023/05/05 06:25:19;;;;;;;11.18;5.38;;;;;;;26.69;46.86;96454.47;5100238;27;20091;-56
2023/05/05 06:27:47;;;;;;;8.32;5.85;;;;;;;26.02;48.17;96455.25;5110407;28;20075;-52
2023/05/05 06:30:16;;;;;;;7.68;5.30;;;;;;;26.96;46.92;96454.63;5111294;28;20048;-53
2023/05/05 06:32:45;;;;;;;7.10;4.90;;;;;;;26.45;48.79;96458.41;5098156;27;20353;-57
2023/05/05 06:35:14;;;;;;;8.77;4.95;;;;;;;26.66;47.11;96459.56;5104607;27;20067;-52
2023/05/05 06:37:43;;;;;;;7.20;5.28;;;;;;;27.48;46.54;96456.16;5096200;27;20115;-58
2023/05/05 06:40:12;;;;;;;6.60;5.00;;;;;;;27.85;45.90;96456.34;5110849;28;20067;-52
2023/05/05 06:42:41;;;;;;;8.10;5.28;;;;;;;28.00;44.45;96455.69;5109646;27;20625;-56
2023/05/05 06:45:10;;;;;;;7.65;5.30;;;;;;;27.18;45.41;96465.50;5095077;27;20138;-59
2023/05/05 06:47:38;;;;;;;6.43;4.97;;;;;;;26.90;47.23;96462.91;5096741;27;20071;-54
2023/05/05 06:50:08;;;;;;;7.85;4.38;;;;;;;27.23;45.21;96463.97;5097912;27;20087;-56
2023/05/05 06:52:38;;;;;;;10.27;4.57;;;;;;;26.13;48.09;96463.53;5098252;27;20135;-56
2023/05/05 06:55:24;;;;;;;6.60;4.50;;;;;;;26.01;48.07;96466.28;5109099;28;20078;-53
2023/05/05 06:57:53;;;;;;;7.88;4.90;;;;;;;26.73;49.04;96452.09;5109767;28;20086;-51
2023/05/05 07:00:22;;;;;;;6.82;4.55;;;;;;;26.67;49.41;96463.91;5110943;27;20114;-59
2023/05/05 07:02:50;;;;;;;6.15;4.55;;;;;;;25.78;51.55;96472.59;5102243;27;20083;-53
2023/05/05 07:05:19;;;;;;;6.97;5.13;;;;;;;25.04;55.41;96470.47;5105543;28;20121;-51
2023/05/05 07:07:52;;;;;;;6.60;5.13;;;;;;;25.87;54.44;96468.44;5106766;28;20718;-52
2023/05/05 07:10:21;;;;;;;7.90;4.90;;;;;;;25.95;53.83;96472.66;5109817;28;20079;-53
2023/05/05 07:12:50;;;;;;;7.63;4.72;;;;;;;25.76;52.39;96464.72;5107344;28;20463;-54
2023/05/05 07:15:19;;;;;;;7.97;5.70;;;;;;;25.70;52.34;96464.84;5110059;27;20075;-56
2023/05/05 07:17:56;;;;;;;8.55;5.35;;;;;;;25.93;54.29;96467.50;5107673;28;20051;-54
2023/05/05 07:20:25;;;;;;;9.60;5.57;;;;;;;26.15;52.52;96469.50;5101607;27;20072;-58
2023/05/05 07:22:55;;;;;;;9.40;5.40;;;;;;;25.93;52.65;96472.91;5107847;27;20083;-48
2023/05/05 07:25:23;;;;;;;10.13;5.63;;;;;;;26.12;57.64;96460.00;5102984;27;20523;-54
2023/05/05 07:27:52;;;;;;;11.65;6.00;;;;;;;25.89;55.12;96466.34;5106634;27;20079;-54
2023/05/05 07:30:20;;;;;;;10.50;5.80;;;;;;;25.96;53.66;96458.09;5101967;27;20082;-52
2023/05/05 07:32:50;;;;;;;7.68;5.88;;;;;;;25.90;54.98;96465.25;5102999;28;20079;-51
2023/05/05 07:35:18;;;;;;;9.50;5.93;;;;;;;25.78;54.34;96467.19;5107635;28;20534;-54
2023/05/05 07:37:47;;;;;;;9.52;6.28;;;;;;;26.36;55.90;96457.16;5109277;27;20094;-58
2023/05/05 07:40:16;;;;;;;11.10;5.97;;;;;;;25.48;55.16;96467.38;5102404;27;20083;-53
2023/05/05 07:42:46;;;;;;;8.70;6.17;;;;;;;25.48;53.18;96462.00;5101315;27;20098;-49
2023/05/05 07:45:14;;;;;;;9.93;6.80;;;;;;;26.19;56.45;96459.84;5105600;27;20501;-51
2023/05/05 07:47:43;;;;;;;8.18;6.47;;;;;;;26.46;52.39;96457.31;5103683;27;20610;-54
2023/05/05 07:50:11;;;;;;;10.57;6.70;;;;;;;27.16;50.84;96464.94;5103166;27;20106;-53
2023/05/05 07:52:39;;;;;;;11.88;6.82;;;;;;;26.38;49.68;96461.25;5102880;27;20090;-52
2023/05/05 07:55:10;;;;;;;13.20;6.70;;;;;;;26.87;52.82;96456.09;5103768;27;20074;-53
2023/05/05 07:57:40;;;;;;;11.85;6.55;;;;;;;27.00;49.48;96457.66;5099820;28;20075;-53
2023/05/05 08:00:09;;;;;;;8.70;6.30;;;;;;;27.86;46.03;96455.25;5100140;27;20110;-55
2023/05/05 08:02:39;;;;;;;9.93;6.88;;;;;;;28.32;44.93;96457.59;5105752;27;20047;-53
2023/05/05 08:05:08;;;;;;;12.32;7.57;;;;;;;28.54;44.43;96455.66;5103698;28;20071;-55
2023/05/05 08:07:39;;;;;;;8.27;6.93;;;;;;;28.34;44.61;96455.47;5103662;27;20085;-55
2023/05/05 08:10:10;;;;;;;9.57;7.15;;;;;;;28.89;43.28;96451.59;5104567;27;20083;-53
2023/05/05 08:12:40;;;;;;;;;;;;;;;28.70;42.22;96461.19;5100621;27;20079;-57
2023/05/05 08:15:09;;;;;;;9.20;7.30;;;;;;;28.45;44.17;96456.41;5097252;27;20374;-57
2023/05/05 08:17:46;;;;;;;10.07;6.88;;;;;;;29.30;42.61;96458.09;5102425;28;20086;-55
2023/05/05 08:20:15;;;;;;;12.75;7.07;;;;;;;29.40;41.64;96449.19;5105145;28;20154;-56
2023/05/05 08:22:43;;;;;;;9.20;6.97;;;;;;;28.39;44.22;96455.56;5105121;27;20087;-55
2023/05/05 08:25:12;;;;;;;11.57;7.60;;;;;;;29.19;41.56;96447.47;5103775;28;20087;-53
2023/05/05 08:27:42;;;;;;;10.73;7.07;;;;;;;28.97;42.37;96445.66;5103128;27;20071;-51
2023/05/05 08:30:12;;;;;;;12.93;6.72;;;;;;;28.48;45.40;96456.69;5101725;27;20086;-55
2023/05/05 08:32:40;;;;;;;12.52;6.90;;;;;;;28.99;43.44;96450.84;5102910;27;20075;-50
2023/05/05 08:35:09;;;;;;;13.35;7.22;;;;;;;28.88;44.90;96444.53;5107073;27;20090;-55
2023/05/05 08:37:38;;;;;;;11.20;7.47;;;;;;;29.00;44.95;96452.50;5105037;27;20083;-55
2023/05/05 08:40:07;;;;;;;12.30;7.50;;;;;;;28.68;43.54;96441.66;5103524;27;20185;-52
2023/05/05 08:42:36;;;;;;;10.83;6.97;;;;;;;29.25;42.72;96440.94;5108035;27;20087;-58
2023/05/05 08:45:09;;;;;;;10.15;7.25;;;;;;;29.60;42.55;96436.81;5102884;27;20509;-57
2023/05/05 08:47:39;;;;;;;8.63;7.32;;;;;;;29.51;42.70;96441.88;5101001;27;20527;-51
2023/05/05 08:50:10;;;;;;;8.15;6.55;;;;;;;29.09;43.88;96440.06;5101962;28;20475;-57
2023/05/05 08:52:40;;;;;;;10.05;7.07;;;;;;;29.58;41.04;96439.75;5107510;27;20079;-58
2023/05/05 08:55:14;;;;;;;10.38;6.63;;;;;;;30.08;40.51;96441.00;5098780;28;20082;-52
2023/05/05 08:57:46;;;;;;;8.68;7.20;;;;;;;30.07;40.79;96438.53;5100850;28;20106;-54
2023/05/05 09:00:18;;;;;;;8.55;7.03;;;;;;;29.92;41.02;96442.06;5101932;27;20133;-53
2023/05/05 09:02:51;;;;;;;9.73;6.85;;;;;;;29.94;41.01;96446.16;5100395;28;20087;-54
2023/05/05 09:05:26;;;;;;;8.95;6.82;;;;;;;31.00;40.02;96446.47;5100310;28;20027;-57
2023/05/05 09:07:54;;;;;;;12.02;7.25;;;;;;;31.06;40.75;96439.94;5097723;28;20083;-57
2023/05/05 09:10:24;;;;;;;8.45;6.88;;;;;;;29.97;42.12;96450.22;5099635;27;20083;-54
2023/05/05 09:12:52;;;;;;;9.65;7.22;;;;;;;31.30;39.62;96445.59;5101001;27;20079;-55
2023/05/05 09:15:23;;;;;;;10.25;6.97;;;;;;;32.32;39.07;96442.41;5104219;28;20071;-52
2023/05/05 09:17:51;;;;;;;8.05;7.13;;;;;;;32.33;37.53;96435.84;5101503;28;20467;-52
2023/05/05 09:20:19;;;;;;;8.15;7.35;;;;;;;31.80;38.74;96438.34;5103946;28;20087;-55
2023/05/05 09:22:48;;;;;;;10.75;6.97;;;;;;;30.93;40.98;96445.94;5104972;28;20078;-56
2023/05/05 09:25:17;;;;;;;9.75;7.38;;;;;;;30.72;40.91;96443.22;5093690;28;20070;-52
2023/05/05 09:27:47;;;;;;;8.77;7.38;;;;;;;31.75;39.09;96435.63;5104436;27;20071;-56
2023/05/05 09:30:17;;;;;;;9.98;7.63;;;;;;;31.26;42.99;96436.34;5109394;28;20573;-56
2023/05/05 09:32:48;;;;;;;9.10;7.78;;;;;;;30.62;43.01;96440.50;5107303;27;20064;-56
2023/05/05 09:35:17;;;;;;;9.90;8.07;;;;;;;30.97;42.36;96436.13;5108592;27;20090;-51
2023/05/05 09:37:45;;;;;;;11.90;7.85;;;;;;;30.43;44.57;96431.28;5106684;27;20075;-56
2023/05/05 09:40:15;;;;;;;12.05;8.50;;;;;;;31.00;40.46;96432.88;5108364;28;20083;-55
2023/05/05 09:42:44;;;;;;;11.20;8.43;;;;;;;32.05;39.15;96431.13;5106055;27;20086;-54
2023/05/05 09:45:26;;;;;;;10.25;7.97;;;;;;;31.38;40.24;96436.06;5110387;27;20083;-51
2023/05/05 09:47:56;;;;;;;10.10;8.80;;;;;;;31.69;39.98;96423.09;5107189;27;20790;-53
2023/05/05 09:50:29;;;;;;;9.85;8.48;;;;;;;31.42;39.22;96429.78;5091178;27;20510;-52
2023/05/05 09:52:59;;;;;;;12.02;7.90;;;;;;;31.75;42.10;96426.63;5112838;27;20079;-51
2023/05/05 09:55:29;;;;;;;11.23;7.70;;;;;;;31.90;38.44;96426.56;5111758;28;20083;-53
2023/05/05 09:58:04;;;;;;;10.93;8.02;;;;;;;31.41;38.53;96428.13;5111162;27;23250;-50
2023/05/05 10:00:39;;;;;;;9.40;7.78;;;;;;;32.97;35.93;96422.25;5112550;28;20072;-51
2023/05/05 10:03:09;;;;;;;11.60;7.65;;;;;;;32.85;35.45;96425.31;5112094;27;20086;-50
2023/05/05 10:05:47;;;;;;;10.20;7.72;;;;;;;32.65;38.12;96425.50;5111153;27;20101;-53
2023/05/05 10:08:16;;;;;;;9.70;7.72;;;;;;;32.03;39.05;96425.94;5102138;27;20090;-58
2023/05/05 10:10:51;;;;;;;10.77;8.43;;;;;;;32.04;41.04;96418.59;5105623;27;20546;-55
2023/05/05 10:13:20;;;;;;;11.38;8.00;;;;;;;32.00;39.62;96421.06;5097255;27;20142;-55
2023/05/05 10:15:50;;;;;;;10.57;8.15;;;;;;;32.73;36.32;96420.25;5107242;27;20109;-53
2023/05/05 10:18:22;;;;;;;9.80;7.97;;;;;;;31.73;38.57;96416.03;5108745;27;20718;-51
2023/05/05 10:20:57;;;;;;;10.20;8.05;;;;;;;31.94;38.11;96416.75;5105184;27;20043;-54
2023/05/05 10:23:33;;;;;;;9.15;7.40;;;;;;;32.29;36.76;96412.13;5091933;28;20453;-50
2023/05/05 10:26:03;;;;;;;8.63;6.90;;;;;;;32.93;37.69;96416.50;5105729;27;20079;-57
2023/05/05 10:28:33;;;;;;;7.18;5.18;;;;;;;32.42;38.51;96410.69;5105274;27;20075;-56
2023/05/05 10:31:02;;;;;;;10.13;6.97;;;;;;;32.80;36.75;96412.53;5104430;27;20087;-59
2023/05/05 10:33:54;;;;;;;8.40;7.00;;;;;;;33.22;37.64;96413.75;5103976;27;20082;-55
2023/05/05 10:36:24;;;;;;;9.18;6.72;;;;;;;32.23;37.94;96403.16;5104203;27;20094;-52
2023/05/05 10:38:56;;;;;;;10.90;7.90;;;;;;;31.56;39.34;96410.91;5104715;27;20094;-53
2023/05/05 10:41:25;;;;;;;9.77;8.07;;;;;;;32.10;39.78;96403.81;5084435;28;20047;-58
2023/05/05 10:43:56;;;;;;;10.07;8.20;;;;;;;32.26;39.96;96399.06;5099911;27;20464;-53
2023/05/05 10:46:24;;;;;;;;;;;;;;;32.21;38.45;96402.66;5099122;27;20083;-51
2023/05/05 10:49:00;;;;;;;10.48;8.45;;;;;;;32.82;38.58;96395.84;5099970;27;20002;-52
2023/05/05 10:51:35;;;;;;;9.65;7.18;;;;;;;32.41;37.24;96390.72;5104944;27;20083;-50
2023/05/05 10:54:28;;;;;;;8.80;7.90;;;;;;;33.51;35.14;96396.50;5099730;27;20055;-58
2023/05/05 10:57:00;;;;;;;10.77;8.40;;;;;;;32.75;36.31;96395.38;5097865;28;20106;-55
2023/05/05 10:59:41;;;;;;;9.50;8.00;;;;;;;33.18;35.47;96390.84;5102688;27;20083;-51
2023/05/05 11:02:20;;;;;;;10.35;8.38;;;;;;;33.61;35.18;96379.94;5101160;27;20079;-49
2023/05/05 11:05:11;;;;;;;8.98;7.82;;;;;;;33.17;37.34;96385.66;5097672;27;20089;-57
2023/05/05 11:07:39;;;;;;;;;;;;;;;32.98;38.18;96383.69;5101248;27;20087;-57
2023/05/05 11:10:08;;;;;;;10.38;8.48;;;;;;;33.93;35.10;96372.94;5105008;27;20477;-54
2023/05/05 11:13:14;;;;;;;11.15;7.72;;;;;;;33.94;34.33;96364.44;5105595;28;20083;-55
2023/05/05 11:15:42;;;;;;;8.93;6.93;;;;;;;35.34;34.28;96359.00;5101685;27;20078;-51
2023/05/05 11:18:34;;;;;;;9.07;7.68;;;;;;;35.29;32.25;96364.59;5107489;27;20087;-54
2023/05/05 11:21:17;;;;;;;8.48;7.57;;;;;;;35.51;32.81;96355.63;5104666;27;20483;-56
2023/05/05 11:23:50;;;;;;;7.72;7.03;;;;;;;35.02;33.69;96348.97;5105561;27;20079;-56
2023/05/05 11:26:34;;;;;;;15.45;7.53;;;;;;;33.17;39.29;96350.94;5100557;28;20086;-56
2023/05/05 11:29:05;;;;;;;10.40;7.90;;;;;;;33.78;37.14;96341.94;5100149;28;20476;-49
2023/05/05 11:31:33;;;;;;;;;;;;;;;33.00;35.79;96347.88;5106292;28;20550;-51
2023/05/05 11:34:23;;;;;;;8.25;6.53;;;;;;;34.04;34.15;96346.28;5105482;28;20669;-49
2023/05/05 11:36:53;;;;;;;;;;;;;;;34.52;34.69;96341.38;5098336;27;20087;-49
2023/05/05 11:39:23;;;;;;;11.20;7.70;;;;;;;33.50;36.02;96338.25;5109004;27;19951;-53
2023/05/05 11:42:04;;;;;;;13.18;8.23;;;;;;;35.29;31.61;96329.75;5101964;27;20076;-55
2023/05/05 11:44:38;;;;;;;9.82;7.93;;;;;;;35.40;31.13;96333.91;5106233;28;20079;-58
2023/05/05 11:47:28;;;;;;;10.75;8.65;;;;;;;36.14;32.73;96330.09;5107097;28;20098;-51